Victor, ID (83455)

8:41 AM MST on December 18, 2014 (GMT -0700)
Trail Creek, 9500 S. | Change Station
CLOSE
Current Station
Personal Weather Station
Location: Victor, ID
Elevation: 6316 ft
Nearby Weather Stations
Active Advisory: Special Statement Active Notice: Local Storm Report

Elev 6316 ft 43.59 °N, 111.09 °W | Updated 4 seconds ago

Overcast
Overcast
26.6 °F
Feels Like 27 °F
N
0.9
Wind Variable Wind from SE
Gusts 2.5 mph

Today
High -- | Low -- °F
--% Chance of Precip.
Yesterday
High -- | Low -- °F
Precip. -- in
7:53 AM 4:49 PM
Waning Crescent, 14% visible
Pressure 30.13 in
Visibility 10.0 miles
Clouds Scattered Clouds 3900 ft
Overcast 4800 ft
Windchill 27 °F
Dew Point 21 °F
Humidity 80%
Rainfall 0.00 in
Snow Depth Not available.
UV 0 out of 12
Pollen .10 out of 12
Air Quality Not available.
Flu Activity Not available.
METAR KDIJ 181456Z AUTO 09003KT 10SM SCT039 OVC048 M03/M05 A3009 RMK AO2 53014 60000 T10331050 SLP202

More Conditions Fewer Conditions

Pressure 30.13 in
Visibility 10.0 miles
Clouds Scattered Clouds 3900 ft
Overcast 4800 ft
Windchill 27 °F
Dew Point 21 °F
Humidity 80%
Rainfall 0.00 in
Snow Depth Not available.
UV 0 out of 12
Pollen .10 out of 12
Air Quality Not available.
Flu Activity Not available.
METAR KDIJ 181456Z AUTO 09003KT 10SM SCT039 OVC048 M03/M05 A3009 RMK AO2 53014 60000 T10331050 SLP202

More Conditions Fewer Conditions

10-Day Weather Forecast

Almanac

Astronomy

Dec. 18, 2014 Rise Set
Actual Time
Civil Twilight
Nautical Twilight
Astronomical Twilight
Moon
Length of Visible Light
Length of Day
Tomorrow will be .
, % of the Moon is Illuminated

Today's Extremes

State Highs State Lows

Community

WunderPhotos

Upload Photos

1,778,947 photos uploaded!

WunderBlogs® & News

Nearby

Air Quality

  Air Quality AQ Index Pollutant
Not available.

Snow Depth

Station Depth Elevation

Earthquake Activity

City Distance Mag. Time & Date
Minimum magnitude displayed is 2.5.

Coastal Water Temperatures

Place Temperature

Nearby Weather Stations